sensor_id;sensor_type;location;lat;lon;timestamp;temperature;humidity
76996;DHT22;65929;49.062;10.338;2023-07-29T00:00:18;15.40;97.90
76996;DHT22;65929;49.062;10.338;2023-07-29T00:01:20;15.30;98.00
76996;DHT22;65929;49.062;10.338;2023-07-29T00:02:21;15.30;98.00
76996;DHT22;65929;49.062;10.338;2023-07-29T00:03:23;15.30;98.00
76996;DHT22;65929;49.062;10.338;2023-07-29T00:04:24;15.30;98.10
76996;DHT22;65929;49.062;10.338;2023-07-29T00:05:25;15.30;98.20
76996;DHT22;65929;49.062;10.338;2023-07-29T00:06:26;15.30;98.20
76996;DHT22;65929;49.062;10.338;2023-07-29T00:07:27;15.30;98.20
76996;DHT22;65929;49.062;10.338;2023-07-29T00:08:30;15.30;98.20
76996;DHT22;65929;49.062;10.338;2023-07-29T00:09:31;15.30;98.30
76996;DHT22;65929;49.062;10.338;2023-07-29T00:10:36;15.30;98.30
76996;DHT22;65929;49.062;10.338;2023-07-29T00:11:37;15.30;98.40
76996;DHT22;65929;49.062;10.338;2023-07-29T00:12:38;15.30;98.50
76996;DHT22;65929;49.062;10.338;2023-07-29T00:13:39;15.30;98.50
76996;DHT22;65929;49.062;10.338;2023-07-29T00:14:40;15.30;98.50
76996;DHT22;65929;49.062;10.338;2023-07-29T00:15:41;15.30;98.50
76996;DHT22;65929;49.062;10.338;2023-07-29T00:16:42;15.20;98.50
76996;DHT22;65929;49.062;10.338;2023-07-29T00:17:44;15.20;98.50
76996;DHT22;65929;49.062;10.338;2023-07-29T00:18:44;15.20;98.60
76996;DHT22;65929;49.062;10.338;2023-07-29T00:19:45;15.20;98.50
76996;DHT22;65929;49.062;10.338;2023-07-29T00:20:46;15.20;98.60
76996;DHT22;65929;49.062;10.338;2023-07-29T00:21:47;15.20;98.60
76996;DHT22;65929;49.062;10.338;2023-07-29T00:22:54;15.20;98.70
76996;DHT22;65929;49.062;10.338;2023-07-29T00:23:57;15.20;98.70
76996;DHT22;65929;49.062;10.338;2023-07-29T00:25:01;15.20;98.70
76996;DHT22;65929;49.062;10.338;2023-07-29T00:26:02;15.20;98.70
76996;DHT22;65929;49.062;10.338;2023-07-29T00:27:07;15.20;98.70
76996;DHT22;65929;49.062;10.338;2023-07-29T00:28:08;15.10;98.70
76996;DHT22;65929;49.062;10.338;2023-07-29T00:29:08;15.00;98.70
76996;DHT22;65929;49.062;10.338;2023-07-29T00:30:13;15.00;98.70
76996;DHT22;65929;49.062;10.338;2023-07-29T00:31:14;15.00;98.70
76996;DHT22;65929;49.062;10.338;2023-07-29T00:32:15;15.00;98.70
76996;DHT22;65929;49.062;10.338;2023-07-29T00:33:19;15.00;98.80
76996;DHT22;65929;49.062;10.338;2023-07-29T00:34:21;15.00;98.80
76996;DHT22;65929;49.062;10.338;2023-07-29T00:35:22;15.00;98.80
76996;DHT22;65929;49.062;10.338;2023-07-29T00:36:23;15.00;98.80
76996;DHT22;65929;49.062;10.338;2023-07-29T00:37:24;15.00;98.90
76996;DHT22;65929;49.062;10.338;2023-07-29T00:38:25;15.00;98.90
76996;DHT22;65929;49.062;10.338;2023-07-29T00:39:28;15.00;98.90
76996;DHT22;65929;49.062;10.338;2023-07-29T00:40:29;15.00;98.90
76996;DHT22;65929;49.062;10.338;2023-07-29T00:41:31;15.00;98.90
76996;DHT22;65929;49.062;10.338;2023-07-29T00:42:32;15.00;99.00
76996;DHT22;65929;49.062;10.338;2023-07-29T00:43:33;15.00;99.00
76996;DHT22;65929;49.062;10.338;2023-07-29T00:44:33;15.00;99.00
76996;DHT22;65929;49.062;10.338;2023-07-29T00:45:34;15.00;99.00
76996;DHT22;65929;49.062;10.338;2023-07-29T00:46:36;15.10;99.00
76996;DHT22;65929;49.062;10.338;2023-07-29T00:47:41;15.00;99.10
76996;DHT22;65929;49.062;10.338;2023-07-29T00:48:43;15.10;99.10
76996;DHT22;65929;49.062;10.338;2023-07-29T00:49:44;15.00;99.00
76996;DHT22;65929;49.062;10.338;2023-07-29T00:50:45;15.00;99.00
76996;DHT22;65929;49.062;10.338;2023-07-29T00:51:46;15.00;99.10
76996;DHT22;65929;49.062;10.338;2023-07-29T00:52:49;15.00;99.10
76996;DHT22;65929;49.062;10.338;2023-07-29T00:53:53;15.00;99.10
76996;DHT22;65929;49.062;10.338;2023-07-29T00:54:55;15.10;99.10
76996;DHT22;65929;49.062;10.338;2023-07-29T00:55:56;15.10;99.10
76996;DHT22;65929;49.062;10.338;2023-07-29T00:57:01;15.00;99.10
76996;DHT22;65929;49.062;10.338;2023-07-29T00:58:03;15.00;99.10
76996;DHT22;65929;49.062;10.338;2023-07-29T00:59:04;15.00;99.10
76996;DHT22;65929;49.062;10.338;2023-07-29T01:00:06;15.00;99.10
76996;DHT22;65929;49.062;10.338;2023-07-29T01:01:09;15.00;99.10
76996;DHT22;65929;49.062;10.338;2023-07-29T01:02:10;15.00;99.00
76996;DHT22;65929;49.062;10.338;2023-07-29T01:03:11;15.00;99.10
76996;DHT22;65929;49.062;10.338;2023-07-29T01:04:12;15.00;99.00
76996;DHT22;65929;49.062;10.338;2023-07-29T01:05:15;14.90;99.00
76996;DHT22;65929;49.062;10.338;2023-07-29T01:06:21;14.90;99.00
76996;DHT22;65929;49.062;10.338;2023-07-29T01:07:29;14.90;99.00
76996;DHT22;65929;49.062;10.338;2023-07-29T01:08:36;14.90;99.00
76996;DHT22;65929;49.062;10.338;2023-07-29T01:09:43;14.90;99.00
76996;DHT22;65929;49.062;10.338;2023-07-29T01:11:01;14.90;99.00
76996;DHT22;65929;49.062;10.338;2023-07-29T01:12:12;14.90;99.00
76996;DHT22;65929;49.062;10.338;2023-07-29T01:13:22;14.90;99.00
76996;DHT22;65929;49.062;10.338;2023-07-29T01:14:33;14.80;98.90
76996;DHT22;65929;49.062;10.338;2023-07-29T01:15:41;14.80;99.00
76996;DHT22;65929;49.062;10.338;2023-07-29T01:16:49;14.80;99.00
76996;DHT22;65929;49.062;10.338;2023-07-29T01:17:54;14.80;98.90
76996;DHT22;65929;49.062;10.338;2023-07-29T01:18:56;14.80;98.90
76996;DHT22;65929;49.062;10.338;2023-07-29T01:20:01;14.70;98.90
76996;DHT22;65929;49.062;10.338;2023-07-29T01:21:08;14.70;98.90
76996;DHT22;65929;49.062;10.338;2023-07-29T01:22:10;14.70;98.90
76996;DHT22;65929;49.062;10.338;2023-07-29T01:23:12;14.60;98.90
76996;DHT22;65929;49.062;10.338;2023-07-29T01:24:14;14.70;99.00
76996;DHT22;65929;49.062;10.338;2023-07-29T01:25:15;14.60;99.00
76996;DHT22;65929;49.062;10.338;2023-07-29T01:26:16;14.60;99.00
76996;DHT22;65929;49.062;10.338;2023-07-29T01:27:17;14.60;99.00
76996;DHT22;65929;49.062;10.338;2023-07-29T01:28:18;14.60;99.00
76996;DHT22;65929;49.062;10.338;2023-07-29T01:29:19;14.60;99.00
76996;DHT22;65929;49.062;10.338;2023-07-29T01:30:24;14.60;99.00
76996;DHT22;65929;49.062;10.338;2023-07-29T01:31:32;14.60;99.00
76996;DHT22;65929;49.062;10.338;2023-07-29T01:32:39;14.60;99.00
76996;DHT22;65929;49.062;10.338;2023-07-29T01:33:45;14.60;99.00
76996;DHT22;65929;49.062;10.338;2023-07-29T01:34:56;14.50;99.00
76996;DHT22;65929;49.062;10.338;2023-07-29T01:36:03;14.50;99.00
76996;DHT22;65929;49.062;10.338;2023-07-29T01:37:06;14.50;99.00
76996;DHT22;65929;49.062;10.338;2023-07-29T01:38:12;14.50;99.00
76996;DHT22;65929;49.062;10.338;2023-07-29T01:39:17;14.50;99.10
76996;DHT22;65929;49.062;10.338;2023-07-29T01:40:21;14.50;99.10
76996;DHT22;65929;49.062;10.338;2023-07-29T01:41:24;14.50;99.10
76996;DHT22;65929;49.062;10.338;2023-07-29T01:42:25;14.60;99.10
76996;DHT22;65929;49.062;10.338;2023-07-29T01:43:27;14.50;99.10
76996;DHT22;65929;49.062;10.338;2023-07-29T01:44:29;14.60;99.20
76996;DHT22;65929;49.062;10.338;2023-07-29T01:45:30;14.60;99.10
76996;DHT22;65929;49.062;10.338;2023-07-29T01:46:37;14.60;99.20
76996;DHT22;65929;49.062;10.338;2023-07-29T01:47:37;14.60;99.20
76996;DHT22;65929;49.062;10.338;2023-07-29T01:48:41;14.60;99.20
76996;DHT22;65929;49.062;10.338;2023-07-29T01:49:42;14.60;99.20
76996;DHT22;65929;49.062;10.338;2023-07-29T01:50:43;14.60;99.20
76996;DHT22;65929;49.062;10.338;2023-07-29T01:51:44;14.60;99.30
76996;DHT22;65929;49.062;10.338;2023-07-29T01:52:45;14.60;99.20
76996;DHT22;65929;49.062;10.338;2023-07-29T01:53:46;14.60;99.30
76996;DHT22;65929;49.062;10.338;2023-07-29T01:54:50;14.60;99.30
76996;DHT22;65929;49.062;10.338;2023-07-29T01:55:50;14.70;99.30
76996;DHT22;65929;49.062;10.338;2023-07-29T01:56:51;14.70;99.30
76996;DHT22;65929;49.062;10.338;2023-07-29T01:57:52;14.70;99.30
76996;DHT22;65929;49.062;10.338;2023-07-29T01:58:53;14.70;99.30
76996;DHT22;65929;49.062;10.338;2023-07-29T01:59:54;14.70;99.30
76996;DHT22;65929;49.062;10.338;2023-07-29T02:00:55;14.70;99.30
76996;DHT22;65929;49.062;10.338;2023-07-29T02:01:56;14.70;99.30
76996;DHT22;65929;49.062;10.338;2023-07-29T02:02:57;14.70;99.30
76996;DHT22;65929;49.062;10.338;2023-07-29T02:03:58;14.70;99.40
76996;DHT22;65929;49.062;10.338;2023-07-29T02:04:59;14.70;99.40
76996;DHT22;65929;49.062;10.338;2023-07-29T02:06:00;14.70;99.30
76996;DHT22;65929;49.062;10.338;2023-07-29T02:07:01;14.70;99.40
76996;DHT22;65929;49.062;10.338;2023-07-29T02:08:02;14.70;99.40
76996;DHT22;65929;49.062;10.338;2023-07-29T02:09:03;14.70;99.40
76996;DHT22;65929;49.062;10.338;2023-07-29T02:10:07;14.70;99.40
76996;DHT22;65929;49.062;10.338;2023-07-29T02:11:09;14.70;99.40
76996;DHT22;65929;49.062;10.338;2023-07-29T02:12:10;14.70;99.40
76996;DHT22;65929;49.062;10.338;2023-07-29T02:13:11;14.70;99.40
76996;DHT22;65929;49.062;10.338;2023-07-29T02:14:12;14.70;99.40
76996;DHT22;65929;49.062;10.338;2023-07-29T02:15:13;14.70;99.40
76996;DHT22;65929;49.062;10.338;2023-07-29T02:16:14;14.70;99.30
76996;DHT22;65929;49.062;10.338;2023-07-29T02:17:15;14.70;99.40
76996;DHT22;65929;49.062;10.338;2023-07-29T02:18:16;14.70;99.40
76996;DHT22;65929;49.062;10.338;2023-07-29T02:19:17;14.70;99.40
76996;DHT22;65929;49.062;10.338;2023-07-29T02:20:18;14.70;99.40
76996;DHT22;65929;49.062;10.338;2023-07-29T02:21:19;14.70;99.40
76996;DHT22;65929;49.062;10.338;2023-07-29T02:22:20;14.70;99.40
76996;DHT22;65929;49.062;10.338;2023-07-29T02:23:21;14.70;99.40
76996;DHT22;65929;49.062;10.338;2023-07-29T02:24:23;14.60;99.40
76996;DHT22;65929;49.062;10.338;2023-07-29T02:25:26;14.60;99.30
76996;DHT22;65929;49.062;10.338;2023-07-29T02:26:27;14.60;99.30
76996;DHT22;65929;49.062;10.338;2023-07-29T02:27:28;14.60;99.30
76996;DHT22;65929;49.062;10.338;2023-07-29T02:28:29;14.60;99.30
76996;DHT22;65929;49.062;10.338;2023-07-29T02:29:30;14.60;99.30
76996;DHT22;65929;49.062;10.338;2023-07-29T02:30:31;14.60;99.30
76996;DHT22;65929;49.062;10.338;2023-07-29T02:31:32;14.60;99.30
76996;DHT22;65929;49.062;10.338;2023-07-29T02:32:33;14.60;99.30
76996;DHT22;65929;49.062;10.338;2023-07-29T02:33:34;14.60;99.30
76996;DHT22;65929;49.062;10.338;2023-07-29T02:34:35;14.60;99.40
76996;DHT22;65929;49.062;10.338;2023-07-29T02:35:36;14.60;99.30
76996;DHT22;65929;49.062;10.338;2023-07-29T02:36:37;14.70;99.30
76996;DHT22;65929;49.062;10.338;2023-07-29T02:37:37;14.70;99.30
76996;DHT22;65929;49.062;10.338;2023-07-29T02:38:38;14.70;99.30
76996;DHT22;65929;49.062;10.338;2023-07-29T02:39:40;14.70;99.30
76996;DHT22;65929;49.062;10.338;2023-07-29T02:40:42;14.70;99.30
76996;DHT22;65929;49.062;10.338;2023-07-29T02:41:43;14.70;99.40
76996;DHT22;65929;49.062;10.338;2023-07-29T02:42:44;14.70;99.30
76996;DHT22;65929;49.062;10.338;2023-07-29T02:43:48;14.80;99.40
76996;DHT22;65929;49.062;10.338;2023-07-29T02:44:49;14.80;99.30
76996;DHT22;65929;49.062;10.338;2023-07-29T02:45:50;14.80;99.30
76996;DHT22;65929;49.062;10.338;2023-07-29T02:46:51;14.80;99.30
76996;DHT22;65929;49.062;10.338;2023-07-29T02:47:53;14.80;99.30
76996;DHT22;65929;49.062;10.338;2023-07-29T02:48:54;14.80;99.30
76996;DHT22;65929;49.062;10.338;2023-07-29T02:49:55;14.80;99.30
76996;DHT22;65929;49.062;10.338;2023-07-29T02:50:56;14.80;99.30
76996;DHT22;65929;49.062;10.338;2023-07-29T02:51:57;14.80;99.30
76996;DHT22;65929;49.062;10.338;2023-07-29T02:52:58;14.90;99.30
76996;DHT22;65929;49.062;10.338;2023-07-29T02:53:59;14.90;99.30
76996;DHT22;65929;49.062;10.338;2023-07-29T02:55:00;14.90;99.20
76996;DHT22;65929;49.062;10.338;2023-07-29T02:56:03;14.90;99.20
76996;DHT22;65929;49.062;10.338;2023-07-29T02:57:04;14.90;99.20
76996;DHT22;65929;49.062;10.338;2023-07-29T02:58:05;14.90;99.20
76996;DHT22;65929;49.062;10.338;2023-07-29T02:59:07;14.90;99.20
76996;DHT22;65929;49.062;10.338;2023-07-29T03:00:08;14.90;99.20
76996;DHT22;65929;49.062;10.338;2023-07-29T03:01:10;14.90;99.20
76996;DHT22;65929;49.062;10.338;2023-07-29T03:02:11;14.90;99.10
76996;DHT22;65929;49.062;10.338;2023-07-29T03:03:12;14.90;99.20
76996;DHT22;65929;49.062;10.338;2023-07-29T03:04:13;14.90;99.20
76996;DHT22;65929;49.062;10.338;2023-07-29T03:05:14;14.90;99.20
76996;DHT22;65929;49.062;10.338;2023-07-29T03:06:15;15.00;99.10
76996;DHT22;65929;49.062;10.338;2023-07-29T03:07:16;14.90;99.10
76996;DHT22;65929;49.062;10.338;2023-07-29T03:08:17;15.00;99.10
76996;DHT22;65929;49.062;10.338;2023-07-29T03:09:18;15.00;99.10
76996;DHT22;65929;49.062;10.338;2023-07-29T03:10:19;15.00;99.10
76996;DHT22;65929;49.062;10.338;2023-07-29T03:11:22;15.00;99.10
76996;DHT22;65929;49.062;10.338;2023-07-29T03:12:23;15.00;99.10
76996;DHT22;65929;49.062;10.338;2023-07-29T03:13:24;15.00;99.00
76996;DHT22;65929;49.062;10.338;2023-07-29T03:14:25;15.00;99.00
76996;DHT22;65929;49.062;10.338;2023-07-29T03:15:27;15.00;99.00
76996;DHT22;65929;49.062;10.338;2023-07-29T03:16:28;15.00;99.00
76996;DHT22;65929;49.062;10.338;2023-07-29T03:17:28;15.00;98.90
76996;DHT22;65929;49.062;10.338;2023-07-29T03:18:29;15.00;98.90
76996;DHT22;65929;49.062;10.338;2023-07-29T03:19:30;15.00;98.90
76996;DHT22;65929;49.062;10.338;2023-07-29T03:20:31;15.00;98.80
76996;DHT22;65929;49.062;10.338;2023-07-29T03:21:32;15.00;98.80
76996;DHT22;65929;49.062;10.338;2023-07-29T03:22:33;15.00;98.80
76996;DHT22;65929;49.062;10.338;2023-07-29T03:23:34;15.00;98.80
76996;DHT22;65929;49.062;10.338;2023-07-29T03:24:35;15.00;98.70
76996;DHT22;65929;49.062;10.338;2023-07-29T03:25:37;15.00;98.70
76996;DHT22;65929;49.062;10.338;2023-07-29T03:26:39;15.00;98.70
76996;DHT22;65929;49.062;10.338;2023-07-29T03:27:40;15.00;98.70
76996;DHT22;65929;49.062;10.338;2023-07-29T03:28:42;15.00;98.70
76996;DHT22;65929;49.062;10.338;2023-07-29T03:29:43;15.00;98.70
76996;DHT22;65929;49.062;10.338;2023-07-29T03:30:44;15.00;98.70
76996;DHT22;65929;49.062;10.338;2023-07-29T03:31:45;15.00;98.70
76996;DHT22;65929;49.062;10.338;2023-07-29T03:32:46;15.10;98.60
76996;DHT22;65929;49.062;10.338;2023-07-29T03:33:47;15.10;98.60
76996;DHT22;65929;49.062;10.338;2023-07-29T03:34:48;15.10;98.50
76996;DHT22;65929;49.062;10.338;2023-07-29T03:35:49;15.10;98.50
76996;DHT22;65929;49.062;10.338;2023-07-29T03:36:50;15.20;98.50
76996;DHT22;65929;49.062;10.338;2023-07-29T03:37:52;15.20;98.40
76996;DHT22;65929;49.062;10.338;2023-07-29T03:38:53;15.20;98.40
76996;DHT22;65929;49.062;10.338;2023-07-29T03:39:54;15.20;98.30
76996;DHT22;65929;49.062;10.338;2023-07-29T03:40:55;15.20;98.30
76996;DHT22;65929;49.062;10.338;2023-07-29T03:41:58;15.20;98.30
76996;DHT22;65929;49.062;10.338;2023-07-29T03:42:59;15.20;98.20
76996;DHT22;65929;49.062;10.338;2023-07-29T03:44:00;15.20;98.20
76996;DHT22;65929;49.062;10.338;2023-07-29T03:45:01;15.20;98.20
76996;DHT22;65929;49.062;10.338;2023-07-29T03:46:02;15.20;98.20
76996;DHT22;65929;49.062;10.338;2023-07-29T03:47:03;15.20;98.20
76996;DHT22;65929;49.062;10.338;2023-07-29T03:48:04;15.20;98.20
76996;DHT22;65929;49.062;10.338;2023-07-29T03:49:05;15.20;98.10
76996;DHT22;65929;49.062;10.338;2023-07-29T03:50:07;15.20;98.10
76996;DHT22;65929;49.062;10.338;2023-07-29T03:51:08;15.20;98.00
76996;DHT22;65929;49.062;10.338;2023-07-29T03:52:09;15.20;98.00
76996;DHT22;65929;49.062;10.338;2023-07-29T03:53:10;15.20;98.00
76996;DHT22;65929;49.062;10.338;2023-07-29T03:54:11;15.20;98.00
76996;DHT22;65929;49.062;10.338;2023-07-29T03:55:12;15.20;98.00
76996;DHT22;65929;49.062;10.338;2023-07-29T03:56:13;15.20;97.90
76996;DHT22;65929;49.062;10.338;2023-07-29T03:57:16;15.20;97.90
76996;DHT22;65929;49.062;10.338;2023-07-29T03:58:17;15.20;97.90
76996;DHT22;65929;49.062;10.338;2023-07-29T03:59:18;15.20;97.90
76996;DHT22;65929;49.062;10.338;2023-07-29T04:00:19;15.20;97.90
76996;DHT22;65929;49.062;10.338;2023-07-29T04:01:20;15.20;97.90
76996;DHT22;65929;49.062;10.338;2023-07-29T04:02:21;15.20;97.90
76996;DHT22;65929;49.062;10.338;2023-07-29T04:03:22;15.20;97.90
76996;DHT22;65929;49.062;10.338;2023-07-29T04:04:23;15.20;97.90
76996;DHT22;65929;49.062;10.338;2023-07-29T04:05:24;15.20;97.90
76996;DHT22;65929;49.062;10.338;2023-07-29T04:06:25;15.20;97.80
76996;DHT22;65929;49.062;10.338;2023-07-29T04:07:26;15.30;97.80
76996;DHT22;65929;49.062;10.338;2023-07-29T04:08:27;15.30;97.80
76996;DHT22;65929;49.062;10.338;2023-07-29T04:09:28;15.30;97.80
76996;DHT22;65929;49.062;10.338;2023-07-29T04:10:29;15.30;97.80
76996;DHT22;65929;49.062;10.338;2023-07-29T04:11:32;15.30;97.80
76996;DHT22;65929;49.062;10.338;2023-07-29T04:12:34;15.30;97.70
76996;DHT22;65929;49.062;10.338;2023-07-29T04:13:35;15.30;97.70
76996;DHT22;65929;49.062;10.338;2023-07-29T04:14:38;15.30;97.70
76996;DHT22;65929;49.062;10.338;2023-07-29T04:15:39;15.30;97.60
76996;DHT22;65929;49.062;10.338;2023-07-29T04:16:40;15.30;97.50
76996;DHT22;65929;49.062;10.338;2023-07-29T04:17:41;15.30;97.50
76996;DHT22;65929;49.062;10.338;2023-07-29T04:18:41;15.30;97.50
76996;DHT22;65929;49.062;10.338;2023-07-29T04:19:42;15.30;97.50
76996;DHT22;65929;49.062;10.338;2023-07-29T04:20:44;15.30;97.40
76996;DHT22;65929;49.062;10.338;2023-07-29T04:21:45;15.30;97.40
76996;DHT22;65929;49.062;10.338;2023-07-29T04:22:46;15.30;97.40
76996;DHT22;65929;49.062;10.338;2023-07-29T04:23:47;15.30;97.30
76996;DHT22;65929;49.062;10.338;2023-07-29T04:24:49;15.30;97.30
76996;DHT22;65929;49.062;10.338;2023-07-29T04:25:50;15.30;97.20
76996;DHT22;65929;49.062;10.338;2023-07-29T04:26:51;15.30;97.20
76996;DHT22;65929;49.062;10.338;2023-07-29T04:27:53;15.40;97.20
76996;DHT22;65929;49.062;10.338;2023-07-29T04:28:55;15.40;97.20
76996;DHT22;65929;49.062;10.338;2023-07-29T04:29:56;15.40;97.30
76996;DHT22;65929;49.062;10.338;2023-07-29T04:30:57;15.50;97.20
76996;DHT22;65929;49.062;10.338;2023-07-29T04:31:58;15.50;97.20
76996;DHT22;65929;49.062;10.338;2023-07-29T04:32:59;15.50;97.20
76996;DHT22;65929;49.062;10.338;2023-07-29T04:34:00;15.50;97.10
76996;DHT22;65929;49.062;10.338;2023-07-29T04:35:01;15.50;97.10
76996;DHT22;65929;49.062;10.338;2023-07-29T04:36:02;15.50;97.00
76996;DHT22;65929;49.062;10.338;2023-07-29T04:37:03;15.60;97.00
76996;DHT22;65929;49.062;10.338;2023-07-29T04:38:04;15.60;96.90
76996;DHT22;65929;49.062;10.338;2023-07-29T04:39:05;15.60;96.80
76996;DHT22;65929;49.062;10.338;2023-07-29T04:40:07;15.60;96.70
76996;DHT22;65929;49.062;10.338;2023-07-29T04:41:08;15.60;96.70
76996;DHT22;65929;49.062;10.338;2023-07-29T04:42:09;15.60;96.60
76996;DHT22;65929;49.062;10.338;2023-07-29T04:43:12;15.60;96.60
76996;DHT22;65929;49.062;10.338;2023-07-29T04:44:12;15.60;96.60
76996;DHT22;65929;49.062;10.338;2023-07-29T04:45:13;15.60;96.60
76996;DHT22;65929;49.062;10.338;2023-07-29T04:46:15;15.60;96.50
76996;DHT22;65929;49.062;10.338;2023-07-29T04:47:16;15.60;96.50
76996;DHT22;65929;49.062;10.338;2023-07-29T04:48:17;15.60;96.40
76996;DHT22;65929;49.062;10.338;2023-07-29T04:49:18;15.60;96.40
76996;DHT22;65929;49.062;10.338;2023-07-29T04:50:19;15.70;96.30
76996;DHT22;65929;49.062;10.338;2023-07-29T04:51:20;15.70;96.30
76996;DHT22;65929;49.062;10.338;2023-07-29T04:52:21;15.70;96.20
76996;DHT22;65929;49.062;10.338;2023-07-29T04:53:22;15.80;96.20
76996;DHT22;65929;49.062;10.338;2023-07-29T04:54:23;15.80;96.10
76996;DHT22;65929;49.062;10.338;2023-07-29T04:55:24;15.80;96.10
76996;DHT22;65929;49.062;10.338;2023-07-29T04:56:25;15.80;96.00
76996;DHT22;65929;49.062;10.338;2023-07-29T04:57:26;15.80;96.00
76996;DHT22;65929;49.062;10.338;2023-07-29T04:58:29;15.80;95.90
76996;DHT22;65929;49.062;10.338;2023-07-29T04:59:30;15.80;96.00
76996;DHT22;65929;49.062;10.338;2023-07-29T05:00:31;15.80;95.90
76996;DHT22;65929;49.062;10.338;2023-07-29T05:01:32;15.80;95.80
76996;DHT22;65929;49.062;10.338;2023-07-29T05:02:33;15.80;95.80
76996;DHT22;65929;49.062;10.338;2023-07-29T05:03:34;15.80;95.70
76996;DHT22;65929;49.062;10.338;2023-07-29T05:04:35;15.80;95.70
76996;DHT22;65929;49.062;10.338;2023-07-29T05:05:36;15.80;95.50
76996;DHT22;65929;49.062;10.338;2023-07-29T05:06:39;15.90;95.50
76996;DHT22;65929;49.062;10.338;2023-07-29T05:07:41;15.90;95.50
76996;DHT22;65929;49.062;10.338;2023-07-29T05:08:42;15.90;95.40
76996;DHT22;65929;49.062;10.338;2023-07-29T05:09:43;15.90;95.40
76996;DHT22;65929;49.062;10.338;2023-07-29T05:10:44;15.90;95.40
76996;DHT22;65929;49.062;10.338;2023-07-29T05:11:45;15.90;95.40
76996;DHT22;65929;49.062;10.338;2023-07-29T05:12:46;16.00;95.40
76996;DHT22;65929;49.062;10.338;2023-07-29T05:13:49;15.90;95.30
76996;DHT22;65929;49.062;10.338;2023-07-29T05:14:50;16.00;95.20
76996;DHT22;65929;49.062;10.338;2023-07-29T05:15:51;16.00;95.10
76996;DHT22;65929;49.062;10.338;2023-07-29T05:16:52;16.00;95.10
76996;DHT22;65929;49.062;10.338;2023-07-29T05:17:53;16.00;95.20
76996;DHT22;65929;49.062;10.338;2023-07-29T05:18:54;16.00;95.20
76996;DHT22;65929;49.062;10.338;2023-07-29T05:19:55;16.00;95.20
76996;DHT22;65929;49.062;10.338;2023-07-29T05:20:56;16.00;95.00
76996;DHT22;65929;49.062;10.338;2023-07-29T05:21:58;16.00;94.90
76996;DHT22;65929;49.062;10.338;2023-07-29T05:22:59;16.00;94.90
76996;DHT22;65929;49.062;10.338;2023-07-29T05:24:00;16.00;94.90
76996;DHT22;65929;49.062;10.338;2023-07-29T05:25:01;16.00;95.00
76996;DHT22;65929;49.062;10.338;2023-07-29T05:26:02;16.00;95.00
76996;DHT22;65929;49.062;10.338;2023-07-29T05:27:03;16.00;95.20
76996;DHT22;65929;49.062;10.338;2023-07-29T05:28:04;16.00;95.30
76996;DHT22;65929;49.062;10.338;2023-07-29T05:29:06;16.00;95.40
76996;DHT22;65929;49.062;10.338;2023-07-29T05:30:08;16.00;95.50
76996;DHT22;65929;49.062;10.338;2023-07-29T05:31:09;16.00;95.50
76996;DHT22;65929;49.062;10.338;2023-07-29T05:32:10;16.00;95.50
76996;DHT22;65929;49.062;10.338;2023-07-29T05:33:11;16.00;95.50
76996;DHT22;65929;49.062;10.338;2023-07-29T05:34:12;16.00;95.60
76996;DHT22;65929;49.062;10.338;2023-07-29T05:35:13;16.00;95.70
76996;DHT22;65929;49.062;10.338;2023-07-29T05:36:15;16.00;95.70
76996;DHT22;65929;49.062;10.338;2023-07-29T05:37:16;16.00;95.80
76996;DHT22;65929;49.062;10.338;2023-07-29T05:38:17;16.00;96.00
76996;DHT22;65929;49.062;10.338;2023-07-29T05:39:18;16.00;96.10
76996;DHT22;65929;49.062;10.338;2023-07-29T05:40:27;16.00;96.20
76996;DHT22;65929;49.062;10.338;2023-07-29T05:41:28;16.00;96.30
76996;DHT22;65929;49.062;10.338;2023-07-29T05:42:29;16.00;96.40
76996;DHT22;65929;49.062;10.338;2023-07-29T05:43:30;16.00;96.50
76996;DHT22;65929;49.062;10.338;2023-07-29T05:44:32;16.00;96.50
76996;DHT22;65929;49.062;10.338;2023-07-29T05:45:33;16.10;96.50
76996;DHT22;65929;49.062;10.338;2023-07-29T05:46:34;16.10;96.40
76996;DHT22;65929;49.062;10.338;2023-07-29T05:47:35;16.10;96.50
76996;DHT22;65929;49.062;10.338;2023-07-29T05:48:36;16.10;96.60
76996;DHT22;65929;49.062;10.338;2023-07-29T05:49:37;16.10;96.50
76996;DHT22;65929;49.062;10.338;2023-07-29T05:50:38;16.10;96.40
76996;DHT22;65929;49.062;10.338;2023-07-29T05:51:39;16.10;96.20
76996;DHT22;65929;49.062;10.338;2023-07-29T05:52:42;16.10;96.20
76996;DHT22;65929;49.062;10.338;2023-07-29T05:53:43;16.10;96.20
76996;DHT22;65929;49.062;10.338;2023-07-29T05:54:44;16.10;96.20
76996;DHT22;65929;49.062;10.338;2023-07-29T05:55:45;16.20;96.30
76996;DHT22;65929;49.062;10.338;2023-07-29T05:56:46;16.20;96.20
76996;DHT22;65929;49.062;10.338;2023-07-29T05:57:47;16.20;96.10
76996;DHT22;65929;49.062;10.338;2023-07-29T05:58:47;16.20;96.10
76996;DHT22;65929;49.062;10.338;2023-07-29T05:59:50;16.20;96.20
76996;DHT22;65929;49.062;10.338;2023-07-29T06:00:51;16.20;96.20
76996;DHT22;65929;49.062;10.338;2023-07-29T06:01:52;16.20;96.20
76996;DHT22;65929;49.062;10.338;2023-07-29T06:02:53;16.20;96.20
76996;DHT22;65929;49.062;10.338;2023-07-29T06:03:54;16.10;96.30
76996;DHT22;65929;49.062;10.338;2023-07-29T06:04:54;16.10;96.20
76996;DHT22;65929;49.062;10.338;2023-07-29T06:05:55;16.20;96.30
76996;DHT22;65929;49.062;10.338;2023-07-29T06:06:56;16.20;96.40
76996;DHT22;65929;49.062;10.338;2023-07-29T06:07:57;16.10;96.40
76996;DHT22;65929;49.062;10.338;2023-07-29T06:09:03;16.10;96.50
76996;DHT22;65929;49.062;10.338;2023-07-29T06:10:04;16.10;96.50
76996;DHT22;65929;49.062;10.338;2023-07-29T06:11:06;16.10;96.50
76996;DHT22;65929;49.062;10.338;2023-07-29T06:12:08;16.20;96.60
76996;DHT22;65929;49.062;10.338;2023-07-29T06:13:09;16.10;96.60
76996;DHT22;65929;49.062;10.338;2023-07-29T06:14:10;16.20;96.60
76996;DHT22;65929;49.062;10.338;2023-07-29T06:15:13;16.20;96.70
76996;DHT22;65929;49.062;10.338;2023-07-29T06:16:16;16.20;96.70
76996;DHT22;65929;49.062;10.338;2023-07-29T06:17:18;16.20;96.80
76996;DHT22;65929;49.062;10.338;2023-07-29T06:18:19;16.20;96.90
76996;DHT22;65929;49.062;10.338;2023-07-29T06:19:23;16.20;96.90
76996;DHT22;65929;49.062;10.338;2023-07-29T06:20:25;16.20;96.90
76996;DHT22;65929;49.062;10.338;2023-07-29T06:21:25;16.20;97.00
76996;DHT22;65929;49.062;10.338;2023-07-29T06:22:26;16.30;97.00
76996;DHT22;65929;49.062;10.338;2023-07-29T06:23:27;16.40;97.10